KVIH/VIH METAR and TAF weather

Enter ICAO airport designator
Station Type Date Time Source
KVIH METAR 2020/02/27 14:53 UTC NOAA

KVIH 271453Z AUTO 21009KT 10SM OVC095 M02/M06 A3021 RMK AO2 SLP242 T10221061 53001


Station Type Date Time Source
KVIH Decoded METAR 2020/02/27 14:53 UTC NOAA

ROLLA/VICHY ROLLA NATIONAL, MO, United States (KVIH) 38-08N 91-46W 333M
Feb 27, 2020 - 09:53 AM EST / 2020.02.27 1453 UTC
Wind: from the SSW (210 degrees) at 10 MPH (9 KT):0
Visibility: 10 mile(s):0
Sky conditions: overcast
Temperature: 28.0 F (-2.2 C)
Windchill: 19 F (-7 C):1
Dew Point: 21.0 F (-6.1 C)
Relative Humidity: 74%
Pressure (altimeter): 30.21 in. Hg (1023 hPa)
Pressure tendency: 0.00 inches (0.1 hPa) higher than three hours ago
ob: KVIH 271453Z AUTO 21009KT 10SM OVC095 M02/M06 A3021 RMK AO2 SLP242 T10221061 53001
cycle: 15

Station Type Date Time Source
KVIH TAF UTC NOAA

Error!

Example: see airport list